createdAt,value
2018-06-21T00:08:13.865Z,22.7
2018-06-21T00:18:13.101Z,22.6
2018-06-21T00:28:12.338Z,22.6
2018-06-21T00:38:11.572Z,22.6
2018-06-21T00:48:10.813Z,22.5
2018-06-21T00:58:10.044Z,22.5
2018-06-21T01:08:09.280Z,22.4
2018-06-21T01:18:08.516Z,22.4
2018-06-21T01:28:07.751Z,22.3
2018-06-21T01:38:06.987Z,22.3
2018-06-21T01:48:06.222Z,22.2
2018-06-21T01:58:05.458Z,22.2
2018-06-21T02:08:04.708Z,22.1
2018-06-21T02:18:03.929Z,22
2018-06-21T02:28:03.167Z,21.9
2018-06-21T02:38:02.406Z,21.9
2018-06-21T02:48:01.637Z,21.8
2018-06-21T02:58:00.874Z,21.8
2018-06-21T03:08:00.110Z,21.7
2018-06-21T03:17:59.348Z,21.7
2018-06-21T03:27:58.591Z,21.7
2018-06-21T03:37:57.822Z,21.7
2018-06-21T03:47:57.057Z,21.8
2018-06-21T03:57:56.299Z,21.8
2018-06-21T04:07:55.528Z,22.1
2018-06-21T04:17:54.766Z,22.3
2018-06-21T04:27:54.003Z,22.5
2018-06-21T04:37:53.283Z,22.6
2018-06-21T04:47:52.479Z,22.7
2018-06-21T04:57:51.712Z,22.8
2018-06-21T05:07:50.951Z,23
2018-06-21T05:17:50.187Z,23.3
2018-06-21T05:27:49.423Z,23.5
2018-06-21T05:37:48.661Z,23.7
2018-06-21T05:47:47.898Z,23.9
2018-06-21T05:57:47.139Z,24.1
2018-06-21T06:07:46.370Z,24.4
2018-06-21T06:17:45.607Z,24.6
2018-06-21T06:27:44.843Z,24.6
2018-06-21T06:37:44.082Z,24.6
2018-06-21T06:47:43.316Z,24.7
2018-06-21T06:57:42.549Z,24.9
2018-06-21T07:07:41.786Z,25.3
2018-06-21T07:17:41.023Z,25.4
2018-06-21T07:27:40.263Z,25.6
2018-06-21T07:37:39.551Z,25.6
2018-06-21T07:47:38.735Z,25.8
2018-06-21T07:57:38.022Z,26
2018-06-21T08:07:37.203Z,26.2
2018-06-21T08:17:36.440Z,26.5
2018-06-21T08:27:35.677Z,26.7
2018-06-21T08:37:34.917Z,26.8
2018-06-21T08:47:34.149Z,26.9
2018-06-21T08:57:33.384Z,26.9
2018-06-21T09:07:32.630Z,26.9
2018-06-21T09:17:31.856Z,26.9
2018-06-21T09:27:31.093Z,27.1
2018-06-21T09:37:30.380Z,27.2
2018-06-21T09:47:29.567Z,27.3
2018-06-21T09:57:28.800Z,27.3
2018-06-21T10:07:28.037Z,27.3
2018-06-21T10:17:27.272Z,27.3
2018-06-21T10:27:26.506Z,27.3
2018-06-21T10:37:25.741Z,27.4
2018-06-21T10:47:24.982Z,27.4
2018-06-21T10:57:24.217Z,27.3
2018-06-21T11:07:23.448Z,27.1
2018-06-21T11:17:22.684Z,26.6
2018-06-21T11:27:21.920Z,25.6
2018-06-21T11:37:21.165Z,24.9
2018-06-21T11:47:20.387Z,24.4
2018-06-21T11:57:19.625Z,24.1
2018-06-21T12:07:18.860Z,23.9
2018-06-21T12:17:18.102Z,23.8
2018-06-21T12:27:17.335Z,23.8
2018-06-21T12:37:16.567Z,23.8
2018-06-21T12:47:15.806Z,23.9
2018-06-21T12:57:15.095Z,24.1
2018-06-21T13:07:14.274Z,24.4
2018-06-21T13:17:13.512Z,24.7
2018-06-21T13:27:12.754Z,24.9
2018-06-21T13:37:12.044Z,25
2018-06-21T13:47:11.255Z,25.1
2018-06-21T13:57:10.464Z,25.1
2018-06-21T14:07:09.702Z,25.2
2018-06-21T14:17:08.940Z,25.3
2018-06-21T14:27:08.178Z,25.4
2018-06-21T14:37:07.422Z,25.4
2018-06-21T14:47:06.656Z,25.4
2018-06-21T14:57:06.016Z,25.4
2018-06-21T15:07:05.134Z,25.4
2018-06-21T15:17:04.376Z,25.5
2018-06-21T15:27:03.611Z,25.5
2018-06-21T15:37:02.848Z,25.6
2018-06-21T15:47:02.093Z,25.5
2018-06-21T15:57:01.327Z,25.4
2018-06-21T16:07:00.566Z,25.4
2018-06-21T16:16:59.804Z,25.4
2018-06-21T16:26:59.044Z,25.4
2018-06-21T16:36:58.285Z,25.4
2018-06-21T16:46:57.525Z,25.4
2018-06-21T16:56:56.760Z,25.3
2018-06-21T17:06:55.998Z,25.2
2018-06-21T17:16:55.289Z,25.1
2018-06-21T17:26:54.471Z,25
2018-06-21T17:36:53.724Z,24.9
2018-06-21T17:46:52.947Z,24.8
2018-06-21T17:56:52.184Z,24.7
2018-06-21T18:06:51.420Z,24.6
2018-06-21T18:16:50.658Z,24.6
2018-06-21T18:26:49.898Z,24.5
2018-06-21T18:36:49.135Z,24.4
2018-06-21T18:46:48.372Z,24.3
2018-06-21T18:56:47.610Z,24.1
2018-06-21T19:06:46.846Z,23.9
2018-06-21T19:16:46.083Z,23.8
2018-06-21T19:26:45.326Z,23.8
2018-06-21T19:36:44.558Z,23.6
2018-06-21T19:46:43.797Z,23.5
2018-06-21T19:56:43.091Z,23.4
2018-06-21T20:06:42.277Z,23.4
2018-06-21T20:16:41.520Z,23.4
2018-06-21T20:26:40.756Z,23.4
2018-06-21T20:36:39.994Z,23.3
2018-06-21T20:46:39.282Z,23.3
2018-06-21T20:56:38.511Z,23.2
2018-06-21T21:06:37.717Z,23.1
2018-06-21T21:16:36.972Z,23.1
2018-06-21T21:26:36.183Z,23.1
2018-06-21T21:36:35.426Z,23
2018-06-21T21:46:34.712Z,22.9
2018-06-21T21:56:33.895Z,22.9
2018-06-21T22:06:33.212Z,22.8
2018-06-21T22:16:32.369Z,22.8
2018-06-21T22:26:31.610Z,22.8
2018-06-21T22:36:30.843Z,22.6
2018-06-21T22:46:30.080Z,22.6
2018-06-21T22:56:29.317Z,22.5
2018-06-21T23:06:28.554Z,22.4
2018-06-21T23:16:27.792Z,22.3
2018-06-21T23:26:27.027Z,22.3
2018-06-21T23:36:26.274Z,22.2
2018-06-21T23:46:25.497Z,22.1
2018-06-21T23:56:24.733Z,22.1
